createdAt,value
2022-09-20T00:01:39.698Z,99506.84
2022-09-20T00:04:08.612Z,99512.91
2022-09-20T00:06:37.467Z,99511.22
2022-09-20T00:09:07.706Z,99513.09
2022-09-20T00:11:40.031Z,99514.19
2022-09-20T00:14:09.742Z,99516.97
2022-09-20T00:16:41.514Z,99516.03
2022-09-20T00:19:16.457Z,99521.38
2022-09-20T00:21:44.898Z,99522.22
2022-09-20T00:24:14.881Z,99515.28
2022-09-20T00:26:43.240Z,99517.91
2022-09-20T00:29:13.399Z,99520.53
2022-09-20T00:31:43.101Z,99525.78
2022-09-20T00:34:30.399Z,99525.78
2022-09-20T00:36:58.875Z,99531.78
2022-09-20T00:39:29.249Z,99529.16
2022-09-20T00:41:57.779Z,99535.25
2022-09-20T00:45:00.323Z,99525.63
2022-09-20T00:47:40.845Z,99535.25
2022-09-20T00:50:18.985Z,99529.16
2022-09-20T00:52:49.962Z,99532.63
2022-09-20T00:55:21.399Z,99529.16
2022-09-20T00:57:50.017Z,99530.94
2022-09-20T01:00:19.021Z,99531.88
2022-09-20T01:02:50.553Z,99522.22
2022-09-20T01:05:20.676Z,99525.78
2022-09-20T01:07:51.669Z,99529.34
2022-09-20T01:10:21.423Z,99529.47
2022-09-20T01:12:51.747Z,99535.50
2022-09-20T01:15:23.470Z,99539.03
2022-09-20T01:17:54.884Z,99529.47
2022-09-20T01:20:27.042Z,99534.72
2022-09-20T01:23:21.911Z,99534.72
2022-09-20T01:26:20.237Z,99538.38
2022-09-20T01:28:55.108Z,99545.41
2022-09-20T01:31:27.014Z,99545.41
2022-09-20T01:33:59.928Z,99545.41
2022-09-20T01:36:35.458Z,99535.00
2022-09-20T01:39:12.048Z,99539.44
2022-09-20T01:41:46.981Z,99531.59
2022-09-20T01:44:22.026Z,99536.75
2022-09-20T01:46:58.256Z,99543.94
2022-09-20T01:49:36.389Z,99543.00
2022-09-20T01:52:38.950Z,99541.25
2022-09-20T01:55:50.279Z,99545.56
2022-09-20T01:58:48.122Z,99543.88
2022-09-20T02:01:54.740Z,99547.25
2022-09-20T02:04:44.888Z,99549.78
2022-09-20T02:07:33.472Z,99548.78
2022-09-20T02:10:29.680Z,99551.31
2022-09-20T02:13:03.218Z,99557.38
2022-09-20T02:15:46.012Z,99556.56
2022-09-20T02:18:35.005Z,99554.00
2022-09-20T02:21:12.672Z,99557.38
2022-09-20T02:23:50.403Z,99554.69
2022-09-20T02:26:33.630Z,99556.56
2022-09-20T02:29:11.746Z,99563.50
2022-09-20T02:32:02.406Z,99557.56
2022-09-20T02:34:52.708Z,99553.41
2022-09-20T02:37:46.987Z,99556.19
2022-09-20T02:40:28.425Z,99560.59
2022-09-20T02:43:06.224Z,99560.75
2022-09-20T02:45:43.231Z,99563.53
2022-09-20T02:48:15.806Z,99556.66
2022-09-20T02:50:55.745Z,99566.41
2022-09-20T02:53:38.733Z,99568.22
2022-09-20T02:56:16.426Z,99567.63
2022-09-20T02:58:54.167Z,99570.41
2022-09-20T03:01:44.583Z,99573.19
2022-09-20T03:04:36.213Z,99570.56
2022-09-20T03:07:17.219Z,99569.50
2022-09-20T03:09:53.292Z,99575.56
2022-09-20T03:12:35.016Z,99577.19
2022-09-20T03:15:18.174Z,99576.09
2022-09-20T03:17:53.728Z,99576.09
2022-09-20T03:20:40.403Z,99580.09
2022-09-20T03:23:23.569Z,99578.41
2022-09-20T03:25:57.166Z,99579.50
2022-09-20T03:28:39.913Z,99573.41
2022-09-20T03:31:26.385Z,99586.44
2022-09-20T03:34:04.539Z,99580.50
2022-09-20T03:36:53.920Z,99576.28
2022-09-20T03:39:42.351Z,99577.34
2022-09-20T03:42:17.298Z,99576.56
2022-09-20T03:45:03.759Z,99581.97
2022-09-20T03:47:47.828Z,99585.50
2022-09-20T03:50:37.975Z,99599.50
2022-09-20T03:53:50.759Z,99600.59
2022-09-20T03:56:42.644Z,99599.13
2022-09-20T03:59:33.317Z,99603.66
2022-09-20T04:02:18.421Z,99600.41
2022-09-20T04:04:53.720Z,99604.13
2022-09-20T04:07:28.311Z,99611.34
2022-09-20T04:10:08.099Z,99609.06
2022-09-20T04:12:51.120Z,99613.66
2022-09-20T04:15:32.614Z,99613.13
2022-09-20T04:18:09.527Z,99619.59
2022-09-20T04:20:46.448Z,99614.56
2022-09-20T04:23:32.391Z,99622.72
2022-09-20T04:26:04.755Z,99622.91
2022-09-20T04:28:36.830Z,99625.75
2022-09-20T04:31:27.273Z,99625.91
2022-09-20T04:33:58.975Z,99631.19
2022-09-20T04:36:57.908Z,99633.13
2022-09-20T04:39:42.762Z,99625.50
2022-09-20T04:42:45.296Z,99626.47
2022-09-20T04:45:55.447Z,99625.75
2022-09-20T04:49:03.536Z,99624.06
2022-09-20T04:52:01.757Z,99625.81
2022-09-20T04:54:57.079Z,99630.88
2022-09-20T04:57:54.143Z,99629.00
2022-09-20T05:00:24.961Z,99633.25
2022-09-20T05:03:17.385Z,99634.19
2022-09-20T05:06:30.289Z,99640.13
2022-09-20T05:09:23.078Z,99644.09
2022-09-20T05:12:03.937Z,99652.50
2022-09-20T05:14:59.153Z,99648.72
2022-09-20T05:17:52.844Z,99660.56
2022-09-20T05:20:51.413Z,99656.50
2022-09-20T05:23:52.144Z,99665.19
2022-09-20T05:26:35.780Z,99664.19
2022-09-20T05:29:12.380Z,99663.91
2022-09-20T05:31:48.896Z,99661.91
2022-09-20T05:34:26.731Z,99666.09
2022-09-20T05:37:02.822Z,99666.78
2022-09-20T05:39:38.765Z,99675.41
2022-09-20T05:42:21.336Z,99678.81
2022-09-20T05:45:03.481Z,99674.50
2022-09-20T05:47:41.846Z,99678.00
2022-09-20T05:50:34.600Z,99674.41
2022-09-20T05:53:30.788Z,99682.13
2022-09-20T05:56:10.743Z,99687.38
2022-09-20T05:58:55.797Z,99688.06
2022-09-20T06:01:29.705Z,99699.31
2022-09-20T06:04:10.561Z,99684.59
2022-09-20T06:06:50.123Z,99701.78
2022-09-20T06:09:43.758Z,99719.22
2022-09-20T06:12:41.254Z,99706.13
2022-09-20T06:15:21.941Z,99704.31
2022-09-20T06:17:58.814Z,99702.63
2022-09-20T06:20:35.369Z,99713.13
2022-09-20T06:23:06.888Z,99720.06
2022-09-20T06:25:43.668Z,99716.53
2022-09-20T06:28:18.107Z,99721.78
2022-09-20T06:30:51.465Z,99722.66
2022-09-20T06:33:22.671Z,99727.81
2022-09-20T06:35:59.011Z,99721.56
2022-09-20T06:39:05.875Z,99735.34
2022-09-20T06:41:36.901Z,99739.91
2022-09-20T06:44:07.884Z,99741.59
2022-09-20T06:46:38.885Z,99734.72
2022-09-20T06:49:10.030Z,99748.78
2022-09-20T06:51:40.491Z,99745.84
2022-09-20T06:54:16.078Z,99750.16
2022-09-20T06:56:47.403Z,99750.81
2022-09-20T06:59:16.658Z,99751.63
2022-09-20T07:01:46.760Z,99754.88
2022-09-20T07:04:15.463Z,99747.75
2022-09-20T07:06:44.465Z,99755.28
2022-09-20T07:09:13.795Z,99752.81
2022-09-20T07:11:43.269Z,99752.75
2022-09-20T07:14:12.491Z,99747.44
2022-09-20T07:16:42.233Z,99760.53
2022-09-20T07:19:12.334Z,99756.06
2022-09-20T07:21:41.084Z,99762.22
2022-09-20T07:24:09.627Z,99769.16
2022-09-20T07:26:39.267Z,99773.50
2022-09-20T07:29:08.155Z,99770.78
2022-09-20T07:31:36.923Z,99772.94
2022-09-20T07:34:06.345Z,99778.75
2022-09-20T07:36:37.508Z,99777.75
2022-09-20T07:39:06.452Z,99783.72
2022-09-20T07:41:35.492Z,99784.41
2022-09-20T07:44:18.155Z,99778.00
2022-09-20T07:46:48.224Z,99779.69
2022-09-20T07:49:17.385Z,99787.38
2022-09-20T07:51:47.325Z,99782.94
2022-09-20T07:54:16.402Z,99788.66
2022-09-20T07:56:47.431Z,99788.25
2022-09-20T07:59:16.877Z,99794.03
2022-09-20T08:01:46.090Z,99803.34
2022-09-20T08:04:15.706Z,99796.34
2022-09-20T08:06:47.322Z,99796.94
2022-09-20T08:09:17.759Z,99801.03
2022-09-20T08:11:47.776Z,99792.91
2022-09-20T08:14:19.467Z,99792.69
2022-09-20T08:16:50.651Z,99799.38
2022-09-20T08:19:21.113Z,99803.47
2022-09-20T08:21:53.938Z,99794.50
2022-09-20T08:24:26.376Z,99796.88
2022-09-20T08:26:55.876Z,99800.03
2022-09-20T08:29:25.378Z,99805.66
2022-09-20T08:31:58.509Z,99798.25
2022-09-20T08:34:27.996Z,99800.69
2022-09-20T08:36:58.265Z,99805.78
2022-09-20T08:42:28.048Z,99799.03
2022-09-20T08:45:00.199Z,99811.38
2022-09-20T08:47:32.362Z,99804.75
2022-09-20T08:50:17.415Z,99814.75
2022-09-20T08:52:50.147Z,99811.22
2022-09-20T08:55:21.079Z,99810.28
2022-09-20T08:57:52.318Z,99820.97
2022-09-20T09:00:24.024Z,99822.50
2022-09-20T09:02:55.511Z,99817.06
2022-09-20T09:05:37.429Z,99820.66
2022-09-20T09:08:16.460Z,99827.03
2022-09-20T09:10:54.379Z,99824.72
2022-09-20T09:13:28.937Z,99828.72
2022-09-20T09:16:01.821Z,99831.75
2022-09-20T09:18:37.543Z,99828.91
2022-09-20T09:21:08.901Z,99832.50
2022-09-20T09:23:48.480Z,99839.81
2022-09-20T09:26:22.044Z,99832.78
2022-09-20T09:29:10.486Z,99843.22
2022-09-20T09:31:40.161Z,99838.78
2022-09-20T09:34:25.516Z,99832.78
2022-09-20T09:36:55.979Z,99846.97
2022-09-20T09:39:30.254Z,99846.19
2022-09-20T09:42:01.557Z,99848.66
2022-09-20T09:44:33.361Z,99846.44
2022-09-20T09:47:03.147Z,99846.00
2022-09-20T09:49:36.640Z,99850.75
2022-09-20T09:52:14.856Z,99846.47
2022-09-20T09:54:50.745Z,99852.47
2022-09-20T09:57:34.053Z,99853.09
2022-09-20T10:00:20.477Z,99858.16
2022-09-20T10:03:32.704Z,99857.22
2022-09-20T10:06:17.149Z,99845.06
2022-09-20T10:08:59.089Z,99843.56
2022-09-20T10:11:43.621Z,99856.63
2022-09-20T10:14:29.977Z,99853.28
2022-09-20T10:17:13.637Z,99858.31
2022-09-20T10:19:57.413Z,99856.38
2022-09-20T10:22:39.196Z,99858.81
2022-09-20T10:25:18.310Z,99859.38
2022-09-20T10:28:03.200Z,99865.94
2022-09-20T10:30:44.342Z,99855.50
2022-09-20T10:33:25.167Z,99864.91
2022-09-20T10:36:14.212Z,99856.22
2022-09-20T10:38:53.301Z,99848.63
2022-09-20T10:42:04.992Z,99854.22
2022-09-20T10:44:48.047Z,99856.88
2022-09-20T10:47:20.204Z,99856.66
2022-09-20T10:50:02.402Z,99860.59
2022-09-20T10:52:54.218Z,99862.16
2022-09-20T10:55:36.900Z,99860.59
2022-09-20T10:58:30.735Z,99861.88
2022-09-20T11:01:12.518Z,99861.44
2022-09-20T11:04:21.268Z,99857.38
2022-09-20T11:07:00.650Z,99857.03
2022-09-20T11:09:41.017Z,99855.94
2022-09-20T11:12:16.927Z,99862.16
2022-09-20T11:14:53.744Z,99857.44
2022-09-20T11:17:28.670Z,99861.72
2022-09-20T11:20:07.248Z,99856.44
2022-09-20T11:22:44.334Z,99854.22
2022-09-20T11:25:25.004Z,99858.63
2022-09-20T11:28:02.878Z,99866.03
2022-09-20T11:30:35.211Z,99859.91
2022-09-20T11:33:16.473Z,99865.06
2022-09-20T11:35:49.819Z,99863.19
2022-09-20T11:38:25.025Z,99868.72
2022-09-20T11:40:58.033Z,99867.34
2022-09-20T11:43:31.427Z,99874.25
2022-09-20T11:46:05.228Z,99879.53
2022-09-20T11:48:42.706Z,99879.22
2022-09-20T11:51:45.686Z,99875.06
2022-09-20T11:54:46.061Z,99877.81
2022-09-20T11:57:16.922Z,99875.66
2022-09-20T11:59:54.675Z,99883.19
2022-09-20T12:02:28.635Z,99889.25
2022-09-20T12:05:00.077Z,99892.28
2022-09-20T12:07:35.210Z,99882.19
2022-09-20T12:10:21.902Z,99876.44
2022-09-20T12:12:56.358Z,99887.88
2022-09-20T12:15:31.735Z,99872.81
2022-09-20T12:18:33.266Z,99857.25
2022-09-20T12:21:17.153Z,99870.38
2022-09-20T12:24:19.158Z,99878.84
2022-09-20T12:26:57.098Z,99866.25
2022-09-20T12:30:07.627Z,99866.66
2022-09-20T12:33:03.920Z,99861.88
2022-09-20T12:35:58.792Z,99853.84
2022-09-20T12:38:48.861Z,99859.78
2022-09-20T12:41:27.805Z,99849.31
2022-09-20T12:44:26.484Z,99850.75
2022-09-20T12:47:01.035Z,99853.38
2022-09-20T12:49:55.145Z,99849.31
2022-09-20T12:53:04.521Z,99851.00
2022-09-20T12:55:56.765Z,99834.81
2022-09-20T12:58:29.919Z,99854.91
2022-09-20T13:01:32.430Z,99853.16
2022-09-20T13:04:41.108Z,99854.13
2022-09-20T13:07:38.808Z,99862.13
2022-09-20T13:10:37.718Z,99874.31
2022-09-20T13:13:22.973Z,99864.53
2022-09-20T13:15:54.993Z,99863.47
2022-09-20T13:18:26.590Z,99865.03
2022-09-20T13:20:58.119Z,99866.59
2022-09-20T13:23:30.795Z,99857.06
2022-09-20T13:26:00.004Z,99863.91
2022-09-20T13:28:54.555Z,99860.91
2022-09-20T13:31:43.462Z,99863.72
2022-09-20T13:34:32.892Z,99866.72
2022-09-20T13:37:01.890Z,99867.22
2022-09-20T13:39:38.307Z,99861.78
2022-09-20T13:42:22.117Z,99867.56
2022-09-20T13:44:54.701Z,99858.34
2022-09-20T13:47:25.823Z,99864.78
2022-09-20T13:50:48.020Z,99870.13
2022-09-20T13:53:40.669Z,99867.53
2022-09-20T13:56:17.097Z,99874.63
2022-09-20T13:58:46.092Z,99860.34
2022-09-20T14:01:27.076Z,99872.06
2022-09-20T14:03:58.099Z,99853.38
2022-09-20T14:06:29.974Z,99862.38
2022-09-20T14:09:08.381Z,99862.88
2022-09-20T14:11:41.568Z,99860.63
2022-09-20T14:14:12.730Z,99867.69
2022-09-20T14:16:49.501Z,99865.91
2022-09-20T14:19:21.870Z,99865.78
2022-09-20T14:21:51.781Z,99867.19
2022-09-20T14:24:33.290Z,99863.69
2022-09-20T14:27:07.568Z,99867.84
2022-09-20T14:29:41.853Z,99874.72
2022-09-20T14:32:25.697Z,99866.72
2022-09-20T14:35:02.320Z,99864.75
2022-09-20T14:37:35.820Z,99869.34
2022-09-20T14:40:08.301Z,99870.47
2022-09-20T14:42:43.188Z,99869.06
2022-09-20T14:45:23.762Z,99867.00
2022-09-20T14:48:10.498Z,99870.03
2022-09-20T14:50:41.901Z,99869.47
2022-09-20T14:53:31.061Z,99874.25
2022-09-20T14:56:08.511Z,99868.31
2022-09-20T14:59:18.850Z,99879.97
2022-09-20T15:01:57.029Z,99872.50
2022-09-20T15:04:29.685Z,99877.25
2022-09-20T15:07:02.105Z,99875.66
2022-09-20T15:09:32.679Z,99882.81
2022-09-20T15:12:05.059Z,99888.91
2022-09-20T15:14:37.785Z,99876.69
2022-09-20T15:17:08.525Z,99882.97
2022-09-20T15:19:39.572Z,99877.19
2022-09-20T15:22:11.768Z,99880.28
2022-09-20T15:24:41.355Z,99877.06
2022-09-20T15:27:11.698Z,99878.06
2022-09-20T15:29:40.846Z,99874.94
2022-09-20T15:32:13.389Z,99876.72
2022-09-20T15:34:44.016Z,99881.13
2022-09-20T15:37:13.324Z,99880.44
2022-09-20T15:39:42.771Z,99875.28
2022-09-20T15:42:12.869Z,99880.44
2022-09-20T15:44:42.204Z,99878.75
2022-09-20T15:47:15.422Z,99882.16
2022-09-20T15:49:46.951Z,99886.50
2022-09-20T15:52:17.143Z,99891.97
2022-09-20T15:54:46.461Z,99890.13
2022-09-20T15:57:17.670Z,99899.63
2022-09-20T15:59:47.038Z,99897.25
2022-09-20T16:02:17.255Z,99897.44
2022-09-20T16:04:47.334Z,99895.72
2022-09-20T16:07:17.818Z,99903.72
2022-09-20T16:09:46.845Z,99903.88
2022-09-20T16:12:16.634Z,99909.31
2022-09-20T16:14:45.857Z,99912.00
2022-09-20T16:17:15.007Z,99920.84
2022-09-20T16:19:44.432Z,99917.47
2022-09-20T16:22:15.049Z,99916.69
2022-09-20T16:24:43.837Z,99917.47
2022-09-20T16:27:18.752Z,99927.81
2022-09-20T16:29:47.753Z,99928.59
2022-09-20T16:32:17.876Z,99924.94
2022-09-20T16:34:46.764Z,99939.84
2022-09-20T16:37:17.202Z,99937.50
2022-09-20T16:39:45.784Z,99955.31
2022-09-20T16:42:15.531Z,99970.16
2022-09-20T16:44:44.664Z,99984.19
2022-09-20T16:47:18.494Z,99992.31
2022-09-20T16:49:47.409Z,99998.06
2022-09-20T16:52:18.080Z,100016.72
2022-09-20T16:54:47.726Z,100020.59
2022-09-20T16:57:16.794Z,100028.13
2022-09-20T16:59:46.749Z,100025.88
2022-09-20T17:02:15.773Z,100032.41
2022-09-20T17:04:44.918Z,100034.63
2022-09-20T17:07:13.665Z,100031.56
2022-09-20T17:09:43.765Z,100027.59
2022-09-20T17:12:13.866Z,100028.09
2022-09-20T17:14:42.455Z,100028.72
2022-09-20T17:17:11.181Z,100018.59
2022-09-20T17:19:40.082Z,100020.69
2022-09-20T17:22:09.588Z,100012.38
2022-09-20T17:24:38.447Z,100008.44
2022-09-20T17:27:09.034Z,100014.97
2022-09-20T17:29:38.138Z,100010.09
2022-09-20T17:32:07.413Z,100006.78
2022-09-20T17:34:36.449Z,100021.59
2022-09-20T17:37:05.720Z,100023.44
2022-09-20T17:39:34.437Z,100020.91
2022-09-20T17:42:02.933Z,100011.25
2022-09-20T17:44:36.937Z,100018.34
2022-09-20T17:47:06.878Z,100016.56
2022-09-20T17:49:37.761Z,100020.03
2022-09-20T17:52:08.538Z,100027.06
2022-09-20T17:54:37.464Z,100027.06
2022-09-20T17:57:06.151Z,100033.25
2022-09-20T17:59:36.889Z,100029.91
2022-09-20T18:02:06.133Z,100025.56
2022-09-20T18:04:34.787Z,100036.94
2022-09-20T18:07:04.280Z,100038.69
2022-09-20T18:09:32.825Z,100041.25
2022-09-20T18:12:02.165Z,100044.72
2022-09-20T18:14:32.819Z,100059.41
2022-09-20T18:17:02.997Z,100060.19
2022-09-20T18:19:34.417Z,100064.66
2022-09-20T18:22:04.998Z,100071.75
2022-09-20T18:28:21.418Z,100061.44
2022-09-20T18:31:00.604Z,100061.63
2022-09-20T18:33:34.235Z,100069.69
2022-09-20T18:36:04.807Z,100069.75
2022-09-20T18:38:33.972Z,100075.91
2022-09-20T18:41:03.301Z,100075.22
2022-09-20T18:43:32.767Z,100070.91
2022-09-20T18:46:01.821Z,100074.53
2022-09-20T18:52:05.126Z,100079.75
2022-09-20T18:54:34.239Z,100076.41
2022-09-20T18:57:03.848Z,100075.75
2022-09-20T18:59:32.813Z,100078.59
2022-09-20T19:02:32.165Z,100077.03
2022-09-20T19:05:19.868Z,100079.03
2022-09-20T19:08:02.825Z,100079.94
2022-09-20T19:10:41.060Z,100079.94
2022-09-20T19:13:24.739Z,100085.25
2022-09-20T19:16:13.716Z,100090.50
2022-09-20T19:19:08.743Z,100093.13
2022-09-20T19:21:47.947Z,100092.97
2022-09-20T19:24:33.237Z,100093.91
2022-09-20T19:27:02.211Z,100087.81
2022-09-20T19:29:32.072Z,100093.06
2022-09-20T19:32:03.302Z,100089.63
2022-09-20T19:34:33.492Z,100095.69
2022-09-20T19:37:18.944Z,100084.34
2022-09-20T19:40:06.388Z,100086.94
2022-09-20T20:27:10.729Z,100097.84
2022-09-20T20:29:39.444Z,100103.03
2022-09-20T20:32:08.163Z,100095.16
2022-09-20T20:34:37.303Z,100107.22
2022-09-20T20:37:06.404Z,100104.53
2022-09-20T20:39:36.126Z,100100.06
2022-09-20T20:42:06.512Z,100107.00
2022-09-20T20:44:36.520Z,100097.44
2022-09-20T20:47:07.543Z,100101.13
2022-09-20T20:49:36.771Z,100107.28
2022-09-20T20:52:06.248Z,100108.28
2022-09-20T20:54:35.688Z,100111.88
2022-09-20T20:57:05.031Z,100109.31
2022-09-20T20:59:34.415Z,100106.75
2022-09-20T21:02:07.938Z,100109.53
2022-09-20T21:04:37.165Z,100105.06
2022-09-20T21:07:05.960Z,100111.22
2022-09-20T21:09:34.504Z,100110.44
2022-09-20T21:12:04.333Z,100111.28
2022-09-20T21:14:34.126Z,100107.91
2022-09-20T21:17:04.774Z,100114.19
2022-09-20T21:19:33.341Z,100109.13
2022-09-20T21:22:02.429Z,100106.72
2022-09-20T21:24:31.926Z,100110.38
2022-09-20T21:27:00.393Z,100101.84
2022-09-20T21:29:29.071Z,100101.25
2022-09-20T21:31:58.020Z,100100.53
2022-09-20T21:34:28.068Z,100104.91
2022-09-20T21:36:57.347Z,100101.47
2022-09-20T21:39:26.934Z,100103.38
2022-09-20T21:41:57.631Z,100100.00
2022-09-20T21:44:25.996Z,100114.97
2022-09-20T21:46:54.906Z,100103.72
2022-09-20T21:49:23.692Z,100111.84
2022-09-20T21:51:53.962Z,100113.63
2022-09-20T21:54:23.370Z,100119.91
2022-09-20T21:56:55.859Z,100120.06
2022-09-20T21:59:24.919Z,100122.84
2022-09-20T22:01:54.346Z,100118.59
2022-09-20T22:04:23.999Z,100117.81
2022-09-20T22:06:54.726Z,100115.41
2022-09-20T22:09:24.295Z,100123.22
2022-09-20T22:11:53.907Z,100126.75
2022-09-20T22:14:24.476Z,100130.34
2022-09-20T22:16:53.908Z,100129.56
2022-09-20T22:19:22.951Z,100129.56
2022-09-20T22:21:53.943Z,100129.56
2022-09-20T22:24:23.019Z,100133.09
2022-09-20T22:26:53.977Z,100129.69
2022-09-20T22:29:23.116Z,100136.63
2022-09-20T22:31:52.567Z,100134.88
2022-09-20T22:34:23.959Z,100132.97
2022-09-20T22:36:54.441Z,100133.69
2022-09-20T22:39:23.380Z,100138.88
2022-09-20T22:41:53.015Z,100129.22
2022-09-20T22:44:22.956Z,100129.22
2022-09-20T22:46:52.223Z,100130.91
2022-09-20T22:49:21.201Z,100131.84
2022-09-20T22:51:50.161Z,100128.34
2022-09-20T22:54:20.782Z,100131.88
2022-09-20T22:56:49.742Z,100131.88
2022-09-20T22:59:18.843Z,100137.13
2022-09-20T23:01:49.169Z,100127.63
2022-09-20T23:04:20.041Z,100129.44
2022-09-20T23:06:52.052Z,100127.72
2022-09-20T23:09:23.683Z,100128.59
2022-09-20T23:11:52.820Z,100123.41
2022-09-20T23:14:24.304Z,100122.56
2022-09-20T23:16:53.298Z,100133.09
2022-09-20T23:19:22.336Z,100124.56
2022-09-20T23:21:51.805Z,100128.09
2022-09-20T23:24:21.708Z,100135.03
2022-09-20T23:26:51.189Z,100137.66
2022-09-20T23:29:19.796Z,100126.16
2022-09-20T23:31:49.612Z,100129.38
2022-09-20T23:34:18.843Z,100136.19
2022-09-20T23:36:48.062Z,100136.00
2022-09-20T23:39:17.221Z,100135.88
2022-09-20T23:41:51.040Z,100138.44
2022-09-20T23:44:20.886Z,100138.41
2022-09-20T23:46:49.587Z,100141.72
2022-09-20T23:49:18.218Z,100132.94
2022-09-20T23:51:47.152Z,100141.56
2022-09-20T23:54:15.954Z,100144.03
2022-09-20T23:56:46.302Z,100140.50
2022-09-20T23:59:15.375Z,100136.91
